• Join FlightAware (Why Join?)
  • Login
  • US Flag 
03:21AM EST


 

Airport Tracker/Info


-or-


 

Live Flight TrackerFlight Track Log ✈ AWE1940 ✈ 25-Apr-2013 ✈ KRSW - KCLT

Flight Track Log - Related Links

Times and Time Zones

All times are in EDT time to prevent confusion due to time zone crossing. See the AWE1940 flight status page for this flight to view local times or setup timezone preferences in your user account.

Time Position Orientation Groundspeed Altitude Reporting Facility
EDT Latitude Longitude Course Direction KTS MPH feet Rate Location/Type
07:07PM 26.6742 -81.7175 344° North 252 290 5,200  Level Miami Center
07:08PM 26.7511 -81.7253 355° North 273 314 8,100 2,400 Climbing Miami Center
07:09PM 26.8239 -81.7283 358° North 295 339 10,000 1,200 Climbing Miami Center
07:10PM 27.1903 -81.7968 343° North  Level FlightAware Approximate
07:10PM 26.9031 -81.7361 355° North 290 334 10,600  Level Miami Center
07:11PM 27.2961 -81.8351 340° North  Level FlightAware Approximate
07:11PM 27.0008 -81.7450 355° North 312 359 12,500  Level Miami Center
07:12PM 27.4021 -81.8729 344° North  Level FlightAware Approximate
07:12PM 27.0961 -81.7678 348° North 337 388 14,600  Level Miami Center
07:13PM 27.1950 -81.8022 343° North 353 406 16,700 1,920 Climbing Miami Center
07:14PM 27.3128 -81.8400 344° North 380 437 18,500 1,620 Climbing Miami Center
07:15PM 27.4200 -81.8211 North 389 448 20,000 1,500 Climbing Miami Center
07:16PM 27.5278 -81.7767 20° North 395 455 21,600 1,380 Climbing Miami Center
07:17PM 27.6381 -81.7300 21° North 411 473 22,800 1,740 Climbing Miami Center
07:18PM 27.7397 -81.6850 21° North 424 488 25,100 1,800 Climbing Miami Center
07:19PM 27.8475 -81.6403 20° North 418 481 26,500 900 Climbing Miami Center
07:20PM 27.9597 -81.5886 22° Northeast 418 481 27,000 1,080 Climbing Miami Center
07:21PM 28.0800 -81.5489 16° North 424 488 28,700 1,200 Climbing Miami Center
07:23PM 28.3594 -81.5103 North 441 507 31,000 660 Climbing Jacksonville Center
07:24PM 28.4700 -81.4992 North 441 507 31,000  Level Jacksonville Center
07:25PM 28.5908 -81.4833 North 441 507 31,000  Level Jacksonville Center
07:26PM 28.7117 -81.4628 North 441 507 31,000  Level Jacksonville Center
07:27PM 28.8325 -81.4517 North 441 507 31,000  Level Jacksonville Center
07:28PM 28.9497 -81.4714 352° North 430 495 31,000  Level Jacksonville Center
07:29PM 29.0650 -81.5100 344° North 424 488 31,000  Level Jacksonville Center
07:30PM 29.1739 -81.5442 345° North 419 482 31,000  Level Jacksonville Center
07:31PM 29.2953 -81.5878 343° North 414 476 31,000  Level Jacksonville Center
07:32PM 29.4042 -81.6244 344° North 414 476 31,000  Level Jacksonville Center
07:33PM 29.5172 -81.6611 344° North 409 471 31,000  Level Jacksonville Center
07:34PM 29.6306 -81.6981 344° North 414 476 31,000  Level Jacksonville Center
07:35PM 29.7436 -81.7347 344° North 419 482 31,000  Level Jacksonville Center
07:36PM 29.8586 -81.7742 343° North 419 482 31,100  Climbing Jacksonville Center
07:37PM 29.9717 -81.8136 343° North 419 482 31,000 -60 Descending Jacksonville Center
07:38PM 30.0764 -81.8436 346° North 419 482 31,000  Level Jacksonville Center
07:39PM 30.1872 -81.8833 343° North 419 482 31,000  Level Jacksonville Center
07:40PM 30.3003 -81.9181 345° North 419 482 31,000  Level Jacksonville Center
07:41PM 30.4156 -81.9531 345° North 419 482 31,000  Level Jacksonville Center
07:42PM 30.5264 -81.9883 345° North 419 482 31,000  Level Jacksonville Center
07:43PM 30.6394 -82.0283 343° North 419 482 31,000  Level Jacksonville Center
07:44PM 30.7503 -82.0633 345° North 419 482 31,000  Level Jacksonville Center
07:45PM 30.8653 -82.0939 347° North 419 482 31,000  Level Jacksonville Center
07:46PM 30.9742 -82.1269 345° North 419 482 31,000  Level Jacksonville Center
07:47PM 31.0931 -82.1356 356° North 419 482 31,000  Level Jacksonville Center
07:48PM 31.2122 -82.1347 360° North 419 482 31,000  Level Jacksonville Center
07:49PM 31.3311 -82.1361 359° North 419 482 31,000  Level Jacksonville Center
07:50PM 31.4522 -82.1375 359° North 419 482 31,000  Level Jacksonville Center
07:51PM 31.5733 -82.1414 358° North 419 482 31,000  Level Jacksonville Center
07:52PM 31.6925 -82.1381 North 419 482 31,000  Level Jacksonville Center
07:53PM 31.8239 -82.1394 359° North 419 482 31,000  Level Jacksonville Center
07:54PM 31.9450 -82.1433 358° North 419 482 31,000  Level Jacksonville Center
07:56PM 32.1953 -82.1442 360° North 437 503 31,000  Level Atlanta Center
07:57PM 32.2978 -82.1444 360° North 430 495 31,000  Level Atlanta Center
07:58PM 32.4189 -82.1467 359° North 430 495 31,000  Level Atlanta Center
07:59PM 32.5378 -82.1492 359° North 425 489 31,000  Level Atlanta Center
08:00PM 32.6589 -82.1464 North 425 489 31,000 -120 Level Atlanta Center
08:01PM 32.7800 -82.1489 359° North 425 489 30,800 -600 Descending Atlanta Center
08:02PM 32.9011 -82.1511 359° North 425 489 29,900 -960 Descending Atlanta Center
08:03PM 33.0178 -82.1536 359° North 425 489 28,900 -1,140 Descending Atlanta Center
08:04PM 33.1494 -82.1556 359° North 420 483 27,700 -1,080 Descending Atlanta Center
08:05PM 33.2622 -82.1558 360° North 420 483 26,800 -900 Descending Atlanta Center
08:06PM 33.3708 -82.1583 359° North 405 466 25,900 -960 Descending Atlanta Center
08:07PM 33.4814 -82.1608 359° North 393 452 24,900 -960 Descending Atlanta Center
08:08PM 33.5900 -82.1611 360° North 393 452 24,000 -480 Descending Atlanta Center
08:09PM 33.6986 -82.1611 360° North 388 447 24,000  Level Atlanta Center
08:10PM 33.8092 -82.1611 360° North 383 441 24,000  Level Atlanta Center
08:11PM 33.9175 -82.1589 North 383 441 24,000  Level Atlanta Center
08:12PM 34.0158 -82.1592 360° North 383 441 24,000  Level Atlanta Center
08:13PM 34.1242 -82.1567 North 383 441 24,000 -1,260 Level Atlanta Center
08:14PM 34.2306 -82.1519 North 383 441 21,500 -2,160 Descending Atlanta Center
08:15PM 34.3211 -82.0644 39° Northeast 375 432 19,700 -1,680 Descending Atlanta Center
08:16PM 34.4008 -81.9669 45° Northeast 380 437 18,200 -1,380 Descending Atlanta Center
08:17PM 34.4764 -81.8667 48° Northeast 385 443 17,000 -1,440 Descending Atlanta Center
08:18PM 34.5439 -81.7894 43° Northeast 387 445 15,700 -1,440 Descending Atlanta Center
08:18PM 34.5497 -81.7767 61° Northeast 385 443 15,600 -1,260 Descending Atlanta Center
08:18PM 34.5925 -81.7225 46° Northeast 377 434 14,800 -1,440 Descending Atlanta Center
08:19PM 34.6211 -81.6839 48° Northeast 379 436 14,200 -1,440 Descending Atlanta Center
08:19PM 34.6578 -81.6397 45° Northeast 370 426 13,500 -1,500 Descending Atlanta Center
08:20PM 34.7006 -81.5906 43° Northeast 369 425 12,700 -1,380 Descending Atlanta Center
08:20PM 34.7269 -81.5519 50° Northeast 366 421 12,100 -720 Descending Atlanta Center
08:21PM 34.7697 -81.5000 45° Northeast 362 417 12,000 -120 Descending Atlanta Center
08:21PM 34.7981 -81.4614 48° Northeast 364 419 12,000 -420 Level Atlanta Center
08:22PM 34.8389 -81.4094 46° Northeast 357 411 11,600 -1,320 Descending Atlanta Center
08:22PM 34.8672 -81.3731 46° Northeast 363 418 10,700 -1,500 Descending Atlanta Center
08:23PM 34.9078 -81.3211 46° Northeast 352 405 10,100 -720 Descending Atlanta Center
08:23PM 34.9403 -81.2769 48° Northeast 354 407 10,000 -120 Descending Atlanta Center
08:24PM 34.9747 -81.2353 45° Northeast 352 405 10,000 -360 Level Atlanta Center
08:25PM 35.0375 -81.1519 47° Northeast 344 396 9,500 -720 Descending Atlanta Center
08:25PM 35.0639 -81.1156 48° Northeast 293 337 9,000 -540 Descending Atlanta Center
08:26PM 35.0942 -81.0814 43° Northeast 303 349 9,000  Level Atlanta Center
08:27PM 35.1689 -81.0661 North 263 303 9,000 -120 Level Atlanta Center
08:27PM 35.2025 -81.0700 355° North 267 307 8,900 -900 Descending Atlanta Center
08:28PM 35.2694 -81.0728 358° North 235 270 7,800 -1,680 Descending Atlanta Center
08:30PM 35.3364 -81.0803 355° North 226 260 5,500 -1,320 Descending Atlanta Center
08:31PM 35.3747 -81.0333 45° Northeast 209 241 5,000 -840 Descending Atlanta Center
08:32PM 35.3628 -80.9750 104° East 193 222 3,900 -1,140 Descending Atlanta Center